Time;durP1;ratioP1;P1;durP2;ratioP2;P2;SDS_P1;SDS_P2;PMS_P1;PMS_P2;Temp;Humidity;BMP_temperature;BMP_pressure;BME280_temperature;BME280_humidity;BME280_pressure;Samples;Min_cycle;Max_cycle;Signal;HPM_P1;HPM_P2
2022/06/15 00:02:06;;;;;;;8.95;4.53;;;;;;;;;;5068172;28;20081;-60
2022/06/15 00:04:33;;;;;;;8.95;4.75;;;;;;;;;;5068272;28;20067;-59
2022/06/15 00:07:00;;;;;;;6.75;4.50;;;;;;;;;;5060294;28;20039;-59
2022/06/15 00:09:25;;;;;;;8.52;5.00;;;;;;;;;;5074652;28;20020;-59
2022/06/15 00:11:51;;;;;;;8.10;4.85;;;;;;;;;;5068766;28;20028;-59
2022/06/15 00:14:23;;;;;;;8.07;4.80;;;;;;;;;;5067256;28;20021;-59
2022/06/15 00:16:49;;;;;;;11.88;4.90;;;;;;;;;;5063180;28;20461;-59
2022/06/15 00:19:15;;;;;;;8.80;5.70;;;;;;;;;;5063967;28;20025;-58
2022/06/15 00:21:41;;;;;;;9.50;4.75;;;;;;;;;;5061321;28;20024;-60
2022/06/15 00:24:07;;;;;;;15.43;5.38;;;;;;;;;;5059089;28;20125;-59
2022/06/15 00:26:33;;;;;;;6.80;5.07;;;;;;;;;;5065946;28;20031;-57
2022/06/15 00:28:58;;;;;;;10.02;5.30;;;;;;;;;;5071249;28;20103;-58
2022/06/15 00:31:24;;;;;;;7.35;5.13;;;;;;;;;;5069876;28;20112;-58
2022/06/15 00:33:49;;;;;;;8.80;5.20;;;;;;;;;;5070386;28;20021;-58
2022/06/15 00:36:19;;;;;;;10.27;5.63;;;;;;;;;;5072865;28;20401;-58
2022/06/15 00:38:50;;;;;;;8.75;5.70;;;;;;;;;;5071823;28;20458;-59
2022/06/15 00:41:23;;;;;;;9.38;5.43;;;;;;;;;;5069137;28;20476;-59
2022/06/15 00:43:50;;;;;;;7.30;4.55;;;;;;;;;;5069718;28;20656;-59
2022/06/15 00:46:30;;;;;;;10.52;5.03;;;;;;;;;;5074249;28;20028;-58
2022/06/15 00:49:01;;;;;;;7.30;5.60;;;;;;;;;;5070997;28;20021;-59
2022/06/15 00:51:27;;;;;;;10.23;4.80;;;;;;;;;;5066034;28;20348;-58
2022/06/15 00:53:54;;;;;;;10.20;5.22;;;;;;;;;;5072274;28;20049;-58
2022/06/15 00:56:20;;;;;;;7.38;4.97;;;;;;;;;;5077938;28;20024;-59
2022/06/15 00:58:49;;;;;;;7.68;5.20;;;;;;;;;;5076782;28;20364;-59
2022/06/15 01:01:15;;;;;;;9.65;5.28;;;;;;;;;;5070334;28;20029;-59
2022/06/15 01:03:41;;;;;;;11.07;4.95;;;;;;;;;;5073743;28;20039;-58
2022/06/15 01:06:09;;;;;;;8.20;5.30;;;;;;;;;;5077121;28;20020;-58
2022/06/15 01:08:46;;;;;;;8.82;4.90;;;;;;;;;;5076383;28;20475;-58
2022/06/15 01:11:20;;;;;;;8.00;5.22;;;;;;;;;;5069785;28;20037;-58
2022/06/15 01:13:54;;;;;;;8.75;5.30;;;;;;;;;;5065002;28;20032;-59
2022/06/15 01:16:49;;;;;;;8.48;5.07;;;;;;;;;;5066242;28;20027;-58
2022/06/15 01:19:29;;;;;;;8.38;5.22;;;;;;;;;;5062896;28;20025;-58
2022/06/15 01:22:06;;;;;;;9.18;5.32;;;;;;;;;;5058150;28;20021;-59
2022/06/15 01:24:43;;;;;;;8.32;5.28;;;;;;;;;;5065773;28;20093;-58
2022/06/15 01:27:37;;;;;;;11.48;5.32;;;;;;;;;;5067706;28;20025;-59
2022/06/15 01:30:09;;;;;;;8.68;5.18;;;;;;;;;;5068750;28;20044;-60
2022/06/15 01:32:39;;;;;;;9.88;5.55;;;;;;;;;;5071828;28;20032;-59
2022/06/15 01:35:22;;;;;;;8.80;5.22;;;;;;;;;;5073440;28;20025;-59
2022/06/15 01:37:59;;;;;;;6.95;5.20;;;;;;;;;;5073532;28;20020;-59
2022/06/15 01:40:40;;;;;;;9.73;5.10;;;;;;;;;;5071407;28;20081;-59
2022/06/15 01:43:13;;;;;;;9.23;5.25;;;;;;;;;;5072508;28;20078;-58
2022/06/15 01:45:39;;;;;;;8.27;4.93;;;;;;;;;;5074551;28;20107;-58
2022/06/15 01:48:08;;;;;;;6.88;5.13;;;;;;;;;;5072645;28;20116;-59
2022/06/15 01:50:45;;;;;;;10.03;5.30;;;;;;;;;;5068614;28;20044;-58
2022/06/15 01:53:17;;;;;;;7.90;5.28;;;;;;;;;;5065974;28;20510;-58
2022/06/15 01:56:15;;;;;;;10.38;5.53;;;;;;;;;;5073752;28;20032;-58
2022/06/15 01:58:44;;;;;;;7.82;5.22;;;;;;;;;;5053317;28;20516;-58
2022/06/15 02:01:18;;;;;;;10.53;5.77;;;;;;;;;;5075702;28;20028;-58
2022/06/15 02:04:01;;;;;;;9.70;5.18;;;;;;;;;;5073950;28;20159;-58
2022/06/15 02:06:47;;;;;;;11.75;5.43;;;;;;;;;;5067462;28;20033;-58
2022/06/15 02:09:18;;;;;;;7.38;4.90;;;;;;;;;;5071923;28;20062;-58
2022/06/15 02:11:44;;;;;;;10.38;5.40;;;;;;;;;;5063984;28;20024;-58
2022/06/15 02:14:26;;;;;;;13.25;5.75;;;;;;;;;;5064424;28;20028;-59
2022/06/15 02:17:09;;;;;;;9.75;5.32;;;;;;;;;;5057302;28;20052;-58
2022/06/15 02:19:42;;;;;;;9.63;5.53;;;;;;;;;;5063497;28;20028;-58
2022/06/15 02:22:12;;;;;;;6.70;5.45;;;;;;;;;;5060823;28;20029;-58
2022/06/15 02:24:39;;;;;;;9.93;5.65;;;;;;;;;;5067338;28;20383;-58
2022/06/15 02:27:06;;;;;;;9.60;5.50;;;;;;;;;;5072452;28;20454;-58
2022/06/15 02:29:34;;;;;;;8.25;5.63;;;;;;;;;;5069274;28;20459;-59
2022/06/15 02:32:00;;;;;;;8.65;5.28;;;;;;;;;;5072472;28;20063;-58
2022/06/15 02:34:26;;;;;;;11.82;6.15;;;;;;;;;;5074636;28;20024;-58
2022/06/15 02:36:52;;;;;;;11.98;5.45;;;;;;;;;;5072074;28;20028;-58
2022/06/15 02:39:18;;;;;;;9.07;5.45;;;;;;;;;;5071406;28;20260;-59
2022/06/15 02:41:44;;;;;;;8.32;5.38;;;;;;;;;;5070292;28;20056;-58
2022/06/15 02:44:13;;;;;;;8.52;5.55;;;;;;;;;;5076789;28;20399;-58
2022/06/15 02:46:43;;;;;;;8.57;5.93;;;;;;;;;;5073816;28;20034;-58
2022/06/15 02:49:09;;;;;;;9.50;5.28;;;;;;;;;;5070813;28;20051;-57
2022/06/15 02:51:35;;;;;;;10.02;5.68;;;;;;;;;;5068684;28;20491;-58
2022/06/15 02:54:09;;;;;;;8.50;5.10;;;;;;;;;;5073781;28;20032;-58
2022/06/15 02:56:36;;;;;;;13.45;6.30;;;;;;;;;;5074070;28;20024;-58
2022/06/15 02:59:02;;;;;;;11.80;5.68;;;;;;;;;;5070127;28;20361;-58
2022/06/15 03:01:28;;;;;;;8.63;5.25;;;;;;;;;;5067968;28;20086;-58
2022/06/15 03:03:53;;;;;;;12.10;6.85;;;;;;;;;;5068897;28;20127;-58
2022/06/15 03:06:20;;;;;;;10.82;6.15;;;;;;;;;;5070390;28;20031;-57
2022/06/15 03:08:45;;;;;;;10.45;6.40;;;;;;;;;;5071278;28;20035;-58
2022/06/15 03:11:12;;;;;;;10.63;6.47;;;;;;;;;;5059005;28;20036;-59
2022/06/15 03:13:37;;;;;;;7.15;5.53;;;;;;;;;;5062843;28;20112;-58
2022/06/15 03:16:04;;;;;;;9.48;5.63;;;;;;;;;;5063610;28;20437;-57
2022/06/15 03:18:30;;;;;;;8.80;6.13;;;;;;;;;;5063951;28;20023;-58
2022/06/15 03:20:57;;;;;;;12.07;5.70;;;;;;;;;;5060141;28;20024;-58
2022/06/15 03:23:23;;;;;;;10.93;5.18;;;;;;;;;;5061450;28;20033;-59
2022/06/15 03:26:06;;;;;;;9.45;5.72;;;;;;;;;;5071068;28;20517;-58
2022/06/15 03:28:34;;;;;;;9.02;6.20;;;;;;;;;;5070361;28;20036;-58
2022/06/15 03:31:00;;;;;;;13.90;6.18;;;;;;;;;;5070552;28;20107;-58
2022/06/15 03:33:25;;;;;;;9.15;5.70;;;;;;;;;;5074304;28;20103;-57
2022/06/15 03:35:50;;;;;;;9.77;5.57;;;;;;;;;;5072057;28;20446;-58
2022/06/15 03:38:16;;;;;;;8.98;6.00;;;;;;;;;;5069029;28;20025;-58
2022/06/15 03:40:46;;;;;;;11.48;6.32;;;;;;;;;;5068978;28;20037;-57
2022/06/15 03:43:12;;;;;;;8.70;5.53;;;;;;;;;;5074057;28;20028;-58
2022/06/15 03:45:38;;;;;;;13.25;6.90;;;;;;;;;;5072453;28;20043;-58
2022/06/15 03:48:03;;;;;;;10.85;7.22;;;;;;;;;;5070766;28;20388;-57
2022/06/15 03:50:34;;;;;;;9.38;6.05;;;;;;;;;;5067523;28;20032;-58
2022/06/15 03:53:00;;;;;;;9.35;5.75;;;;;;;;;;5076491;28;20027;-58
2022/06/15 03:55:28;;;;;;;10.05;6.70;;;;;;;;;;5073817;28;20048;-58
2022/06/15 03:57:54;;;;;;;11.65;7.07;;;;;;;;;;5070795;28;20070;-57
2022/06/15 04:00:21;;;;;;;10.85;6.93;;;;;;;;;;5067319;28;20025;-57
2022/06/15 04:02:46;;;;;;;17.40;6.50;;;;;;;;;;5070532;28;20395;-58
2022/06/15 04:05:21;;;;;;;9.63;6.43;;;;;;;;;;5072473;28;20035;-57
2022/06/15 04:10:31;;;;;;;14.80;6.78;;;;;;;;;;5068891;28;20158;-58
2022/06/15 04:12:57;;;;;;;8.23;6.40;;;;;;;;;;5062736;28;20203;-57
2022/06/15 04:15:22;;;;;;;10.77;6.13;;;;;;;;;;5061756;28;20028;-58
2022/06/15 04:17:48;;;;;;;12.25;6.93;;;;;;;;;;5061350;28;20414;-58
2022/06/15 04:20:31;;;;;;;12.85;7.30;;;;;;;;;;5059893;28;20560;-57
2022/06/15 04:22:57;;;;;;;10.68;6.40;;;;;;;;;;5064076;28;20024;-58
2022/06/15 04:25:22;;;;;;;9.52;5.90;;;;;;;;;;5070065;28;20066;-58
2022/06/15 04:27:48;;;;;;;10.07;5.95;;;;;;;;;;5070923;28;20107;-59
2022/06/15 04:30:13;;;;;;;9.70;6.32;;;;;;;;;;5075882;28;20027;-57
2022/06/15 04:32:39;;;;;;;8.88;6.15;;;;;;;;;;5075271;28;20020;-58
2022/06/15 04:35:05;;;;;;;9.38;6.38;;;;;;;;;;5074233;28;20028;-57
2022/06/15 04:37:30;;;;;;;10.07;6.57;;;;;;;;;;5068676;28;20492;-59
2022/06/15 04:39:56;;;;;;;8.32;6.28;;;;;;;;;;5074837;28;20054;-57
2022/06/15 04:42:21;;;;;;;13.23;7.13;;;;;;;;;;5075714;28;20370;-57
2022/06/15 04:44:46;;;;;;;13.57;6.72;;;;;;;;;;5073836;28;20024;-57
2022/06/15 04:47:12;;;;;;;11.38;7.00;;;;;;;;;;5073169;28;20112;-58
2022/06/15 04:49:37;;;;;;;12.00;6.35;;;;;;;;;;5072731;28;20029;-57
2022/06/15 04:52:03;;;;;;;12.15;7.00;;;;;;;;;;5076018;28;20077;-57
2022/06/15 04:54:28;;;;;;;8.57;6.35;;;;;;;;;;5076828;28;20670;-59
2022/06/15 04:56:54;;;;;;;11.43;6.57;;;;;;;;;;5073711;28;20021;-57
2022/06/15 04:59:19;;;;;;;11.13;6.60;;;;;;;;;;5070711;28;20031;-57
2022/06/15 05:01:45;;;;;;;12.25;7.57;;;;;;;;;;5074346;28;20055;-58
2022/06/15 05:04:10;;;;;;;10.77;6.50;;;;;;;;;;5077329;28;20082;-57
2022/06/15 05:06:38;;;;;;;11.23;6.78;;;;;;;;;;5075644;28;20137;-58
2022/06/15 05:09:05;;;;;;;9.88;6.68;;;;;;;;;;5070569;28;20469;-59
2022/06/15 05:11:31;;;;;;;12.75;6.75;;;;;;;;;;5063378;28;20029;-58
2022/06/15 05:13:57;;;;;;;11.10;7.20;;;;;;;;;;5066064;28;20066;-57
2022/06/15 05:16:23;;;;;;;10.48;6.68;;;;;;;;;;5066556;28;20028;-58
2022/06/15 05:18:48;;;;;;;10.73;7.47;;;;;;;;;;5064437;28;20020;-57
2022/06/15 05:21:14;;;;;;;10.27;7.07;;;;;;;;;;5063153;28;20021;-57
2022/06/15 05:23:39;;;;;;;12.43;7.50;;;;;;;;;;5075184;28;20073;-57
2022/06/15 05:26:05;;;;;;;11.07;6.78;;;;;;;;;;5073356;28;20035;-58
2022/06/15 05:28:30;;;;;;;12.60;7.68;;;;;;;;;;5073356;28;20119;-58
2022/06/15 05:31:08;;;;;;;12.65;6.97;;;;;;;;;;5072552;28;20070;-58
2022/06/15 05:33:34;;;;;;;11.73;7.22;;;;;;;;;;5069480;28;20385;-58
2022/06/15 05:36:06;;;;;;;11.85;7.63;;;;;;;;;;5072591;28;20035;-58
2022/06/15 05:38:31;;;;;;;11.98;7.30;;;;;;;;;;5073011;28;20028;-58
2022/06/15 05:40:57;;;;;;;11.50;6.65;;;;;;;;;;5072385;28;20028;-58
2022/06/15 05:43:22;;;;;;;11.40;7.00;;;;;;;;;;5076477;28;20023;-58
2022/06/15 05:45:48;;;;;;;14.13;7.57;;;;;;;;;;5073194;28;20021;-58
2022/06/15 05:48:13;;;;;;;10.93;6.90;;;;;;;;;;5071261;28;20025;-59
2022/06/15 05:50:38;;;;;;;13.60;6.80;;;;;;;;;;5070530;28;20033;-58
2022/06/15 05:53:04;;;;;;;13.10;6.63;;;;;;;;;;5076192;28;20031;-59
2022/06/15 05:55:29;;;;;;;10.13;7.18;;;;;;;;;;5075544;28;20445;-58
2022/06/15 05:57:55;;;;;;;12.60;7.20;;;;;;;;;;5072346;28;20103;-59
2022/06/15 06:00:22;;;;;;;20.85;10.93;;;;;;;;;;5069255;28;20029;-58
2022/06/15 06:02:48;;;;;;;14.27;8.18;;;;;;;;;;5074411;28;20032;-59
2022/06/15 06:05:13;;;;;;;12.13;7.63;;;;;;;;;;5075760;28;20460;-59
2022/06/15 06:07:39;;;;;;;16.10;8.13;;;;;;;;;;5066047;28;20064;-58
2022/06/15 06:10:05;;;;;;;13.52;7.85;;;;;;;;;;5061126;28;20032;-58
2022/06/15 06:12:30;;;;;;;12.18;6.72;;;;;;;;;;5063019;28;20492;-58
2022/06/15 06:14:56;;;;;;;12.70;6.60;;;;;;;;;;5065101;28;20096;-59
2022/06/15 06:17:22;;;;;;;10.57;6.97;;;;;;;;;;5065674;28;20020;-58
2022/06/15 06:19:47;;;;;;;14.77;6.80;;;;;;;;;;5062919;28;20074;-59
2022/06/15 06:22:13;;;;;;;11.48;6.32;;;;;;;;;;5067815;28;20024;-58
2022/06/15 06:24:38;;;;;;;10.45;6.85;;;;;;;;;;5071763;28;20028;-59
2022/06/15 06:27:06;;;;;;;14.65;6.90;;;;;;;;;;5072385;28;20107;-59
2022/06/15 06:29:32;;;;;;;16.42;7.88;;;;;;;;;;5070911;28;20511;-59
2022/06/15 06:31:59;;;;;;;12.85;7.32;;;;;;;;;;5071366;28;20047;-59
2022/06/15 06:34:24;;;;;;;12.82;7.20;;;;;;;;;;5070179;28;20107;-59
2022/06/15 06:36:50;;;;;;;10.38;7.60;;;;;;;;;;5065765;28;20590;-59
2022/06/15 06:39:20;;;;;;;17.40;8.13;;;;;;;;;;5070960;28;20024;-59
2022/06/15 06:41:45;;;;;;;12.35;7.65;;;;;;;;;;5070234;28;20040;-59
2022/06/15 06:44:11;;;;;;;15.60;7.47;;;;;;;;;;5074909;28;20032;-59
2022/06/15 06:46:40;;;;;;;12.95;7.28;;;;;;;;;;5073713;28;20102;-59
2022/06/15 06:49:06;;;;;;;14.52;7.15;;;;;;;;;;5070840;28;20024;-59
2022/06/15 06:51:33;;;;;;;16.83;7.80;;;;;;;;;;5067950;28;20041;-59
2022/06/15 06:53:58;;;;;;;13.10;7.40;;;;;;;;;;5074610;28;20368;-59
2022/06/15 06:56:24;;;;;;;11.90;7.13;;;;;;;;;;5075386;28;20024;-59
2022/06/15 06:58:49;;;;;;;13.15;7.25;;;;;;;;;;5071732;28;20134;-59
2022/06/15 07:01:14;;;;;;;12.43;8.40;;;;;;;;;;5067356;28;20483;-59
2022/06/15 07:03:40;;;;;;;12.02;7.65;;;;;;;;;;5072117;28;20025;-59
2022/06/15 07:06:08;;;;;;;13.57;7.82;;;;;;;;;;5074628;28;20371;-59
2022/06/15 07:08:37;;;;;;;11.88;7.85;;;;;;;;;;5065809;28;20025;-59
2022/06/15 07:11:07;;;;;;;11.43;7.13;;;;;;;;;;5062678;28;20371;-59
2022/06/15 07:13:33;;;;;;;10.82;7.38;;;;;;;;;;5065831;28;20097;-59
2022/06/15 07:16:05;;;;;;;11.45;7.13;;;;;;;;;;5064577;28;20036;-59
2022/06/15 07:18:30;;;;;;;9.93;6.80;;;;;;;;;;5064690;28;20040;-59
2022/06/15 07:21:04;;;;;;;13.57;7.93;;;;;;;;;;5064806;28;20097;-60
2022/06/15 07:23:30;;;;;;;14.35;7.43;;;;;;;;;;5073646;28;20089;-59
2022/06/15 07:25:56;;;;;;;12.40;6.70;;;;;;;;;;5071201;28;20107;-59
2022/06/15 07:28:21;;;;;;;11.48;7.22;;;;;;;;;;5070915;28;20075;-60
2022/06/15 07:30:47;;;;;;;13.07;6.97;;;;;;;;;;5070287;28;20493;-59
2022/06/15 07:33:14;;;;;;;14.40;7.90;;;;;;;;;;5073480;28;20044;-59
2022/06/15 07:35:41;;;;;;;10.10;7.30;;;;;;;;;;5072351;28;20368;-59
2022/06/15 07:38:06;;;;;;;12.00;7.32;;;;;;;;;;5071401;28;20021;-59
2022/06/15 07:40:33;;;;;;;10.48;7.15;;;;;;;;;;5070709;28;20038;-59
2022/06/15 07:42:58;;;;;;;11.88;7.57;;;;;;;;;;5072341;28;20107;-59
2022/06/15 07:45:25;;;;;;;11.15;7.57;;;;;;;;;;5074519;28;20058;-59
2022/06/15 07:50:37;;;;;;;11.07;6.53;;;;;;;;;;5068662;28;20039;-59
2022/06/15 07:53:04;;;;;;;12.70;7.18;;;;;;;;;;5074415;28;20477;-58
2022/06/15 07:55:34;;;;;;;12.00;6.97;;;;;;;;;;5073755;28;20039;-58
2022/06/15 07:58:00;;;;;;;10.88;6.72;;;;;;;;;;5069786;28;20383;-59
2022/06/15 08:00:27;;;;;;;17.40;7.38;;;;;;;;;;5067733;28;20211;-59
2022/06/15 08:02:52;;;;;;;13.95;7.40;;;;;;;;;;5071877;28;20032;-59
2022/06/15 08:05:19;;;;;;;13.95;8.10;;;;;;;;;;5078655;28;20034;-59
2022/06/15 08:07:45;;;;;;;13.73;7.20;;;;;;;;;;5069186;28;20384;-58
2022/06/15 08:10:14;;;;;;;12.32;7.30;;;;;;;;;;5066259;28;20503;-59
2022/06/15 08:12:40;;;;;;;13.40;7.22;;;;;;;;;;5067652;28;20039;-59
2022/06/15 08:15:06;;;;;;;10.68;7.25;;;;;;;;;;5070616;28;20024;-58
2022/06/15 08:17:40;;;;;;;13.48;7.43;;;;;;;;;;5070301;28;20115;-59
2022/06/15 08:20:13;;;;;;;10.88;7.00;;;;;;;;;;5073409;28;20187;-59
2022/06/15 08:22:42;;;;;;;12.18;7.72;;;;;;;;;;5075777;28;20054;-60
2022/06/15 08:25:10;;;;;;;12.45;7.82;;;;;;;;;;5077542;28;20039;-59
2022/06/15 08:27:36;;;;;;;14.25;7.05;;;;;;;;;;5078176;28;20060;-59
2022/06/15 08:30:03;;;;;;;11.00;6.97;;;;;;;;;;5077679;28;20089;-59
2022/06/15 08:32:28;;;;;;;12.52;7.35;;;;;;;;;;5079729;28;20125;-59
2022/06/15 08:34:53;;;;;;;10.60;7.28;;;;;;;;;;5077421;28;20051;-58
2022/06/15 08:37:19;;;;;;;11.73;7.05;;;;;;;;;;5075297;28;20027;-60
2022/06/15 08:39:45;;;;;;;10.07;7.57;;;;;;;;;;5076836;28;20047;-60
2022/06/15 08:42:47;;;;;;;9.00;7.50;;;;;;;;;;5077323;28;20028;-60
2022/06/15 08:45:39;;;;;;;10.77;7.07;;;;;;;;;;5074932;28;20025;-59
2022/06/15 08:48:16;;;;;;;12.27;7.45;;;;;;;;;;5079828;28;20028;-59
2022/06/15 08:50:47;;;;;;;11.45;7.47;;;;;;;;;;5076035;28;20036;-59
2022/06/15 08:53:16;;;;;;;12.20;7.95;;;;;;;;;;5073915;28;20442;-59
2022/06/15 08:55:53;;;;;;;14.15;7.47;;;;;;;;;;5077727;28;20031;-59
2022/06/15 08:58:28;;;;;;;11.63;7.40;;;;;;;;;;5080934;28;20023;-59
2022/06/15 09:01:01;;;;;;;11.73;7.03;;;;;;;;;;5072790;28;20101;-59
2022/06/15 09:03:56;;;;;;;15.32;7.60;;;;;;;;;;5080280;28;20121;-60
2022/06/15 09:06:59;;;;;;;12.32;7.70;;;;;;;;;;5072493;28;20024;-59
2022/06/15 09:09:57;;;;;;;14.60;7.70;;;;;;;;;;5067163;28;20041;-60
2022/06/15 09:15:26;;;;;;;13.02;7.18;;;;;;;;;;5065049;28;20031;-58
2022/06/15 09:17:55;;;;;;;11.48;7.40;;;;;;;;;;5067563;28;20027;-59
2022/06/15 09:20:28;;;;;;;11.25;7.80;;;;;;;;;;5073411;28;20032;-59
2022/06/15 09:23:06;;;;;;;11.68;8.00;;;;;;;;;;5065631;28;20384;-59
2022/06/15 09:25:45;;;;;;;11.38;7.15;;;;;;;;;;5073455;28;20028;-59
2022/06/15 09:28:30;;;;;;;;;;;;;;;;;;5074077;28;20060;-59
2022/06/15 09:31:01;;;;;;;9.80;6.65;;;;;;;;;;5068924;28;19908;-59
2022/06/15 09:33:33;;;;;;;9.23;7.35;;;;;;;;;;5070472;28;20494;-60
2022/06/15 09:36:07;;;;;;;8.48;6.78;;;;;;;;;;5072950;28;20031;-58
2022/06/15 09:38:33;;;;;;;11.65;7.07;;;;;;;;;;5071217;28;20104;-59
2022/06/15 09:41:12;;;;;;;9.90;6.82;;;;;;;;;;5075439;28;20028;-59
2022/06/15 09:43:46;;;;;;;13.30;7.57;;;;;;;;;;5073207;28;20024;-59
2022/06/15 09:46:14;;;;;;;15.82;7.85;;;;;;;;;;5071108;28;20060;-60
2022/06/15 09:49:09;;;;;;;16.10;8.00;;;;;;;;;;5071826;28;20430;-60
2022/06/15 09:51:49;;;;;;;13.68;7.00;;;;;;;;;;5028656;28;20040;-60
2022/06/15 09:54:37;;;;;;;9.88;6.75;;;;;;;;;;5069512;28;20033;-61
2022/06/15 09:57:03;;;;;;;8.27;6.93;;;;;;;;;;5063991;28;20031;-61
2022/06/15 09:59:33;;;;;;;12.27;6.82;;;;;;;;;;5076470;28;20495;-61
2022/06/15 10:02:02;;;;;;;9.82;6.43;;;;;;;;;;5069668;28;20091;-60
2022/06/15 10:04:31;;;;;;;10.32;6.88;;;;;;;;;;5061909;28;20021;-61
2022/06/15 10:07:02;;;;;;;;;;;;;;;;;;5065338;28;20086;-60
2022/06/15 10:09:31;;;;;;;8.27;5.93;;;;;;;;;;5065838;28;19961;-60
2022/06/15 10:12:56;;;;;;;;;;;;;;;;;;5061773;28;20035;-60
2022/06/15 10:14:57;;;;;;;10.60;6.43;;;;;;;;;;5065811;28;19909;-60
2022/06/15 10:17:32;;;;;;;11.05;5.72;;;;;;;;;;5066618;28;20108;-60
2022/06/15 10:19:58;;;;;;;6.43;5.63;;;;;;;;;;5072613;28;20024;-60
2022/06/15 10:22:28;;;;;;;9.00;5.97;;;;;;;;;;5074159;28;20028;-60
2022/06/15 10:24:56;;;;;;;9.18;6.18;;;;;;;;;;5077840;28;20411;-60
2022/06/15 10:27:28;;;;;;;10.93;6.10;;;;;;;;;;5071393;28;20606;-61
2022/06/15 10:30:01;;;;;;;9.18;5.53;;;;;;;;;;5069715;28;20021;-61
2022/06/15 10:32:29;;;;;;;6.75;5.63;;;;;;;;;;5070185;28;20159;-61
2022/06/15 10:35:05;;;;;;;9.80;6.25;;;;;;;;;;5072759;28;20033;-60
2022/06/15 10:37:33;;;;;;;7.00;5.30;;;;;;;;;;5069692;28;20036;-59
2022/06/15 10:40:20;;;;;;;9.27;5.70;;;;;;;;;;5073890;28;20633;-59
2022/06/15 10:42:51;;;;;;;8.77;6.10;;;;;;;;;;5064209;28;20114;-59
2022/06/15 10:45:23;;;;;;;10.52;5.80;;;;;;;;;;5071049;28;20032;-59
2022/06/15 10:48:00;;;;;;;6.70;5.40;;;;;;;;;;5073112;28;20028;-59
2022/06/15 10:50:37;;;;;;;7.72;5.60;;;;;;;;;;5075347;28;20070;-60
2022/06/15 10:53:05;;;;;;;8.25;5.53;;;;;;;;;;5069510;28;20177;-60
2022/06/15 11:04:05;;;;;;;8.60;5.32;;;;;;;;;;5057686;28;20039;-60
2022/06/15 11:06:48;;;;;;;7.70;5.05;;;;;;;;;;5063665;28;20028;-60
2022/06/15 11:09:23;;;;;;;9.88;5.43;;;;;;;;;;5060829;28;20036;-60
2022/06/15 11:11:51;;;;;;;5.88;5.00;;;;;;;;;;5064101;28;20389;-61
2022/06/15 11:14:25;;;;;;;7.78;5.10;;;;;;;;;;5065056;28;20032;-61
2022/06/15 11:19:50;;;;;;;6.90;4.53;;;;;;;;;;5068632;28;20181;-59
2022/06/15 11:22:17;;;;;;;6.47;4.75;;;;;;;;;;5068273;28;20028;-60
2022/06/15 11:24:50;;;;;;;8.30;4.80;;;;;;;;;;5069899;28;20021;-61
2022/06/15 11:27:44;;;;;;;6.32;4.93;;;;;;;;;;5072001;28;20027;-60
2022/06/15 11:30:09;;;;;;;9.80;4.80;;;;;;;;;;5071436;28;20056;-61
2022/06/15 11:32:41;;;;;;;7.55;4.25;;;;;;;;;;5068238;28;20676;-60
2022/06/15 11:35:13;;;;;;;6.10;4.30;;;;;;;;;;5072674;28;20038;-60
2022/06/15 11:38:02;;;;;;;10.15;4.45;;;;;;;;;;5072150;28;20543;-61
2022/06/15 11:41:09;;;;;;;7.10;4.25;;;;;;;;;;5068379;28;20396;-61
2022/06/15 11:43:38;;;;;;;5.65;4.25;;;;;;;;;;5068878;28;20028;-61
2022/06/15 11:46:18;;;;;;;4.85;3.72;;;;;;;;;;5065947;28;20055;-61
2022/06/15 11:48:58;;;;;;;5.10;4.28;;;;;;;;;;5070900;28;20032;-61
2022/06/15 11:51:30;;;;;;;6.45;4.85;;;;;;;;;;5072467;28;20273;-61
2022/06/15 11:54:14;;;;;;;6.72;4.38;;;;;;;;;;5067344;28;20062;-61
2022/06/15 11:56:59;;;;;;;6.72;3.90;;;;;;;;;;5070774;28;20029;-61
2022/06/15 11:59:39;;;;;;;7.40;4.07;;;;;;;;;;5053262;28;20095;-61
2022/06/15 12:02:12;;;;;;;4.72;4.00;;;;;;;;;;5066873;28;20037;-61
2022/06/15 12:04:55;;;;;;;4.35;3.72;;;;;;;;;;5061520;28;20098;-61
2022/06/15 12:07:38;;;;;;;5.43;4.18;;;;;;;;;;5063223;28;20111;-61
2022/06/15 12:10:54;;;;;;;5.20;3.97;;;;;;;;;;5059945;28;20029;-61
2022/06/15 12:13:40;;;;;;;4.80;4.07;;;;;;;;;;5005492;28;20057;-61
2022/06/15 12:16:06;;;;;;;5.22;3.47;;;;;;;;;;5053150;28;20029;-61
2022/06/15 12:18:31;;;;;;;5.30;3.58;;;;;;;;;;5073215;28;20391;-62
2022/06/15 12:21:16;;;;;;;6.28;3.63;;;;;;;;;;5069980;28;20032;-61
2022/06/15 12:23:59;;;;;;;6.38;3.53;;;;;;;;;;5069561;28;20370;-61
2022/06/15 12:26:53;;;;;;;4.15;3.15;;;;;;;;;;5074194;28;20560;-61
2022/06/15 12:29:24;;;;;;;4.47;3.22;;;;;;;;;;5042503;28;20037;-61
2022/06/15 12:34:56;;;;;;;4.05;2.92;;;;;;;;;;5070301;28;20036;-62
2022/06/15 12:37:46;;;;;;;4.78;3.03;;;;;;;;;;5067925;28;20017;-61
2022/06/15 12:40:30;;;;;;;4.65;3.00;;;;;;;;;;5074069;28;20045;-62
2022/06/15 12:43:19;;;;;;;4.00;3.38;;;;;;;;;;5070106;28;20032;-61
2022/06/15 12:45:53;;;;;;;4.75;3.38;;;;;;;;;;5070141;28;20089;-61
2022/06/15 12:48:47;;;;;;;3.42;2.90;;;;;;;;;;5077423;28;20028;-62
2022/06/15 12:51:47;;;;;;;3.45;3.13;;;;;;;;;;5070330;28;20521;-62
2022/06/15 12:54:30;;;;;;;4.53;3.72;;;;;;;;;;5067353;28;20039;-59
2022/06/15 12:57:33;;;;;;;3.40;2.80;;;;;;;;;;5072242;28;20024;-60
2022/06/15 13:00:25;;;;;;;3.30;2.97;;;;;;;;;;5066206;28;20387;-60
2022/06/15 13:03:02;;;;;;;3.97;2.90;;;;;;;;;;5063281;28;20044;-61
2022/06/15 13:05:35;;;;;;;3.67;2.95;;;;;;;;;;5063858;28;20158;-61
2022/06/15 13:08:21;;;;;;;4.68;3.10;;;;;;;;;;5066911;28;20372;-60
2022/06/15 13:10:53;;;;;;;5.90;3.22;;;;;;;;;;5063669;28;20028;-60
2022/06/15 13:13:29;;;;;;;5.13;3.05;;;;;;;;;;5065540;28;20027;-60
2022/06/15 13:15:59;;;;;;;6.45;3.20;;;;;;;;;;5073442;28;20032;-60
2022/06/15 13:18:53;;;;;;;5.70;3.17;;;;;;;;;;5071895;28;20227;-61
2022/06/15 13:21:32;;;;;;;3.90;2.90;;;;;;;;;;5072724;28;20041;-60
2022/06/15 13:24:04;;;;;;;3.92;3.00;;;;;;;;;;5067380;28;20103;-62
2022/06/15 13:26:42;;;;;;;3.78;3.28;;;;;;;;;;5071717;28;20025;-62
2022/06/15 13:29:10;;;;;;;5.35;3.22;;;;;;;;;;5074950;28;20035;-61
2022/06/15 13:31:41;;;;;;;;;;;;;;;;;;5075158;28;20414;-61
2022/06/15 13:34:12;;;;;;;3.08;2.78;;;;;;;;;;5072718;28;19928;-61
2022/06/15 13:36:38;;;;;;;4.32;3.17;;;;;;;;;;5069625;28;20080;-61
2022/06/15 13:39:41;;;;;;;5.25;3.10;;;;;;;;;;5075843;28;20028;-60
2022/06/15 13:42:26;;;;;;;3.58;2.90;;;;;;;;;;5071317;28;20134;-60
2022/06/15 13:45:11;;;;;;;3.72;3.22;;;;;;;;;;5072430;28;20033;-61
2022/06/15 13:47:52;;;;;;;3.97;3.30;;;;;;;;;;5073791;28;20028;-61
2022/06/15 13:50:46;;;;;;;6.25;3.42;;;;;;;;;;5069077;28;20421;-61
2022/06/15 13:53:41;;;;;;;5.07;3.20;;;;;;;;;;5067373;28;20115;-61
2022/06/15 13:56:12;;;;;;;5.40;3.42;;;;;;;;;;5069142;28;20025;-61
2022/06/15 13:58:50;;;;;;;7.72;3.67;;;;;;;;;;5073352;28;20021;-61
2022/06/15 14:01:48;;;;;;;6.70;3.67;;;;;;;;;;5068447;28;20495;-61
2022/06/15 14:04:25;;;;;;;4.45;3.00;;;;;;;;;;5056019;28;20052;-61
2022/06/15 14:07:31;;;;;;;5.13;3.35;;;;;;;;;;5057360;28;20021;-62
2022/06/15 14:10:25;;;;;;;5.22;3.40;;;;;;;;;;5062762;28;20131;-62
2022/06/15 14:13:02;;;;;;;7.93;3.45;;;;;;;;;;5058094;28;20082;-62
2022/06/15 14:15:36;;;;;;;5.22;3.55;;;;;;;;;;5071630;28;20058;-62
2022/06/15 14:18:17;;;;;;;4.07;3.55;;;;;;;;;;5072588;28;20240;-62
2022/06/15 14:20:45;;;;;;;5.40;3.35;;;;;;;;;;5070320;28;20024;-62
2022/06/15 14:23:15;;;;;;;8.10;3.60;;;;;;;;;;5072753;28;20020;-62
2022/06/15 14:25:48;;;;;;;6.93;3.42;;;;;;;;;;5070563;28;20390;-61
2022/06/15 14:28:17;;;;;;;4.18;3.63;;;;;;;;;;5075094;28;20024;-61
2022/06/15 14:30:46;;;;;;;4.35;3.60;;;;;;;;;;5072630;28;20495;-61
2022/06/15 14:33:22;;;;;;;5.65;3.60;;;;;;;;;;5066991;28;20040;-62
2022/06/15 14:36:09;;;;;;;6.15;4.28;;;;;;;;;;5071564;28;20491;-61
2022/06/15 14:38:35;;;;;;;5.15;3.60;;;;;;;;;;5069689;28;20502;-62
2022/06/15 14:41:22;;;;;;;6.30;3.90;;;;;;;;;;5070616;28;20024;-61
2022/06/15 14:43:51;;;;;;;5.75;3.42;;;;;;;;;;5072995;28;20553;-61
2022/06/15 14:46:24;;;;;;;9.70;3.97;;;;;;;;;;5075905;28;20672;-61
2022/06/15 14:48:52;;;;;;;5.55;3.72;;;;;;;;;;5076947;28;20475;-62
2022/06/15 14:51:18;;;;;;;8.00;3.90;;;;;;;;;;5071492;28;20033;-61
2022/06/15 14:53:55;;;;;;;7.13;4.00;;;;;;;;;;5073899;28;20021;-62
2022/06/15 14:56:27;;;;;;;4.57;3.65;;;;;;;;;;5075764;28;20085;-62
2022/06/15 14:59:10;;;;;;;6.03;3.83;;;;;;;;;;5060508;28;20035;-61
2022/06/15 15:02:05;;;;;;;4.95;3.78;;;;;;;;;;5062043;28;20389;-61
2022/06/15 15:04:53;;;;;;;4.97;3.83;;;;;;;;;;5064507;28;20345;-61
2022/06/15 15:10:04;;;;;;;7.20;4.00;;;;;;;;;;5065376;28;20119;-60
2022/06/15 15:12:36;;;;;;;6.22;4.32;;;;;;;;;;5063850;28;20531;-59
2022/06/15 15:15:04;;;;;;;5.00;4.10;;;;;;;;;;5071642;28;20098;-60
2022/06/15 15:17:52;;;;;;;4.90;4.10;;;;;;;;;;5073127;28;20031;-59
2022/06/15 15:20:37;;;;;;;7.30;3.95;;;;;;;;;;5067683;28;20067;-60
2022/06/15 15:23:03;;;;;;;4.80;3.85;;;;;;;;;;5065859;28;20032;-61
2022/06/15 15:25:44;;;;;;;4.82;3.78;;;;;;;;;;5074098;28;20101;-60
2022/06/15 15:39:29;;;;;;;4.93;3.90;;;;;;;;;;5068520;28;20127;-61
2022/06/15 15:41:55;;;;;;;6.38;4.20;;;;;;;;;;5070471;28;20111;-61
2022/06/15 15:44:21;;;;;;;4.38;3.67;;;;;;;;;;5067049;28;20031;-61
2022/06/15 15:46:46;;;;;;;6.55;3.92;;;;;;;;;;5072131;28;20025;-61